createdAt,value
2017-04-11T00:00:03.174Z,0
2017-04-11T00:05:03.304Z,0
2017-04-11T00:10:03.084Z,0
2017-04-11T00:15:02.705Z,0
2017-04-11T00:20:03.386Z,0
2017-04-11T00:25:03.167Z,0
2017-04-11T00:30:02.980Z,0
2017-04-11T00:35:02.623Z,0
2017-04-11T00:40:03.399Z,0
2017-04-11T00:45:02.969Z,0
2017-04-11T00:50:03.635Z,0
2017-04-11T00:55:03.386Z,0
2017-04-11T01:00:03.163Z,0
2017-04-11T01:05:02.901Z,0
2017-04-11T01:10:02.695Z,0
2017-04-11T01:15:03.459Z,0
2017-04-11T01:20:03.104Z,0
2017-04-11T01:25:02.891Z,0
2017-04-11T01:30:03.588Z,0
2017-04-11T01:35:03.259Z,0
2017-04-11T01:40:02.897Z,0
2017-04-11T01:45:03.610Z,0
2017-04-11T01:50:03.389Z,0
2017-04-11T01:55:03.036Z,0
2017-04-11T02:00:02.995Z,0
2017-04-11T02:05:02.625Z,0
2017-04-11T02:10:03.367Z,0
2017-04-11T02:15:03.010Z,0
2017-04-11T02:20:02.763Z,0
2017-04-11T02:25:03.538Z,0
2017-04-11T02:30:03.201Z,0
2017-04-11T02:35:02.851Z,0
2017-04-11T02:40:02.736Z,0
2017-04-11T02:45:03.479Z,0
2017-04-11T02:50:03.191Z,0
2017-04-11T02:55:02.787Z,0
2017-04-11T03:00:03.544Z,0
2017-04-11T03:05:03.143Z,0
2017-04-11T03:10:02.880Z,0
2017-04-11T03:15:03.577Z,0
2017-04-11T03:20:03.388Z,0
2017-04-11T03:25:03.148Z,0
2017-04-11T03:30:02.930Z,0
2017-04-11T03:35:02.623Z,0
2017-04-11T03:40:03.357Z,0
2017-04-11T03:45:03.076Z,0
2017-04-11T03:50:02.824Z,0
2017-04-11T03:55:03.713Z,0
2017-04-11T04:00:03.442Z,1
2017-04-11T04:05:03.074Z,0
2017-04-11T04:10:02.727Z,0
2017-04-11T04:15:03.328Z,0
2017-04-11T04:20:03.020Z,0
2017-04-11T04:25:02.706Z,0
2017-04-11T04:30:03.482Z,0
2017-04-11T04:35:03.281Z,0
2017-04-11T04:40:03.095Z,0
2017-04-11T04:45:02.727Z,0
2017-04-11T04:50:03.344Z,0
2017-04-11T04:55:03.098Z,0
2017-04-11T05:00:02.873Z,0
2017-04-11T05:05:03.587Z,0
2017-04-11T05:10:03.377Z,0
2017-04-11T05:15:03.117Z,1
2017-04-11T05:20:02.653Z,0
2017-04-11T05:25:03.250Z,0
2017-04-11T05:30:02.844Z,0
2017-04-11T05:35:03.471Z,0
2017-04-11T05:40:03.309Z,0
2017-04-11T05:45:03.072Z,0
2017-04-11T05:50:02.789Z,0
2017-04-11T05:55:03.582Z,0
2017-04-11T06:00:03.308Z,0
2017-04-11T06:05:02.929Z,0
2017-04-11T06:10:02.670Z,0
2017-04-11T06:15:03.313Z,0
2017-04-11T06:20:03.012Z,0
2017-04-11T06:25:02.753Z,0
2017-04-11T06:30:03.397Z,0
2017-04-11T06:35:03.109Z,2
2017-04-11T06:40:02.859Z,0
2017-04-11T06:45:02.592Z,1
2017-04-11T06:50:03.367Z,0
2017-04-11T06:55:03.166Z,1
2017-04-11T07:00:02.718Z,3
2017-04-11T07:05:03.515Z,2
2017-04-11T07:10:03.262Z,2
2017-04-11T07:15:02.937Z,0
2017-04-11T07:20:03.574Z,2
2017-04-11T07:25:03.155Z,2
2017-04-11T07:30:02.787Z,2
2017-04-11T07:35:03.381Z,3
2017-04-11T07:40:03.075Z,1
2017-04-11T07:45:02.654Z,0
2017-04-11T07:50:03.245Z,2
2017-04-11T07:55:02.898Z,1
2017-04-11T08:00:03.607Z,0
2017-04-11T08:05:03.349Z,3
2017-04-11T08:10:03.167Z,3
2017-04-11T08:15:02.948Z,0
2017-04-11T08:20:03.618Z,3
2017-04-11T08:25:03.419Z,1
2017-04-11T08:30:03.035Z,1
2017-04-11T08:35:02.831Z,2
2017-04-11T08:40:03.494Z,2
2017-04-11T08:45:03.193Z,1
2017-04-11T08:50:03.031Z,2
2017-04-11T08:55:03.332Z,3
2017-04-11T09:00:02.947Z,2
2017-04-11T09:05:03.175Z,0
2017-04-11T09:10:03.263Z,2
2017-04-11T09:15:02.952Z,2
2017-04-11T09:20:02.965Z,2
2017-04-11T09:25:02.665Z,5
2017-04-11T09:30:03.175Z,4
2017-04-11T09:35:03.118Z,1
2017-04-11T09:40:02.772Z,4
2017-04-11T09:45:03.293Z,4
2017-04-11T09:50:02.996Z,3
2017-04-11T09:55:03.107Z,2
2017-04-11T10:00:03.043Z,5
2017-04-11T10:05:03.112Z,3
2017-04-11T10:10:02.744Z,4
2017-04-11T10:15:03.387Z,4
2017-04-11T10:20:02.783Z,4
2017-04-11T10:25:03.069Z,4
2017-04-11T10:30:03.492Z,2
2017-04-11T10:35:03.300Z,4
2017-04-11T10:40:03.070Z,6
2017-04-11T10:45:03.067Z,3
2017-04-11T10:50:03.243Z,3
2017-04-11T10:55:03.176Z,6
2017-04-11T11:00:03.363Z,4
2017-04-11T11:05:02.681Z,8
2017-04-11T11:10:03.176Z,5
2017-04-11T11:15:02.684Z,2
2017-04-11T11:20:02.976Z,3
2017-04-11T11:25:03.006Z,7
2017-04-11T11:30:03.575Z,2
2017-04-11T11:35:03.602Z,3
2017-04-11T11:40:03.025Z,6
2017-04-11T11:45:03.105Z,5
2017-04-11T11:50:03.353Z,7
2017-04-11T11:55:03.377Z,3
2017-04-11T12:00:02.956Z,8
2017-04-11T12:05:03.047Z,3
2017-04-11T12:10:02.634Z,2
2017-04-11T12:15:03.250Z,4
2017-04-11T12:20:02.934Z,5
2017-04-11T12:25:03.161Z,5
2017-04-11T12:30:03.573Z,4
2017-04-11T12:35:03.552Z,6
2017-04-11T12:40:03.579Z,4
2017-04-11T12:45:03.452Z,3
2017-04-11T12:50:02.879Z,6
2017-04-11T12:55:02.902Z,6
2017-04-11T13:00:02.861Z,5
2017-04-11T13:05:03.159Z,5
2017-04-11T13:10:03.287Z,4
2017-04-11T13:15:02.731Z,6
2017-04-11T13:20:03.143Z,2
2017-04-11T13:25:02.785Z,3
2017-04-11T13:30:03.484Z,3
2017-04-11T13:35:02.831Z,3
2017-04-11T13:40:03.236Z,5
2017-04-11T13:45:03.348Z,8
2017-04-11T13:50:03.336Z,4
2017-04-11T13:55:03.545Z,5
2017-04-11T14:00:03.003Z,7
2017-04-11T14:05:02.921Z,3
2017-04-11T14:10:03.246Z,7
2017-04-11T14:15:03.164Z,4
2017-04-11T14:20:03.044Z,6
2017-04-11T14:25:03.238Z,5
2017-04-11T14:30:03.503Z,6
2017-04-11T14:35:03.154Z,5
2017-04-11T14:40:03.606Z,6
2017-04-11T14:45:03.099Z,6
2017-04-11T14:50:02.662Z,9
2017-04-11T14:55:03.270Z,8
2017-04-11T15:00:03.471Z,3
2017-04-11T15:05:02.954Z,9
2017-04-11T15:10:02.750Z,9
2017-04-11T15:15:02.943Z,6
2017-04-11T15:20:03.373Z,6
2017-04-11T15:25:02.857Z,5
2017-04-11T15:30:02.969Z,5
2017-04-11T15:35:03.285Z,6
2017-04-11T15:40:02.909Z,4
2017-04-11T15:45:02.898Z,5
2017-04-11T15:50:02.952Z,2
2017-04-11T15:55:03.086Z,7
2017-04-11T16:00:02.709Z,7
2017-04-11T16:05:02.707Z,3
2017-04-11T16:10:03.468Z,7
2017-04-11T16:15:03.352Z,6
2017-04-11T16:20:03.304Z,6
2017-04-11T16:25:03.256Z,4
2017-04-11T16:30:03.089Z,9
2017-04-11T16:35:02.908Z,7
2017-04-11T16:40:02.721Z,3
2017-04-11T16:45:03.321Z,3
2017-04-11T16:50:03.125Z,5
2017-04-11T16:55:02.837Z,7
2017-04-11T17:00:03.590Z,8
2017-04-11T17:05:03.362Z,5
2017-04-11T17:10:03.025Z,6
2017-04-11T17:15:02.807Z,3
2017-04-11T17:20:02.629Z,6
2017-04-11T17:25:03.248Z,7
2017-04-11T17:30:03.025Z,4
2017-04-11T17:35:02.660Z,7
2017-04-11T17:40:03.445Z,5
2017-04-11T17:45:03.152Z,2
2017-04-11T17:50:02.832Z,3
2017-04-11T17:55:03.520Z,6
2017-04-11T18:00:03.200Z,4
2017-04-11T18:05:02.959Z,5
2017-04-11T18:10:02.736Z,5
2017-04-11T18:15:03.575Z,4
2017-04-11T18:20:03.464Z,3
2017-04-11T18:25:03.111Z,3
2017-04-11T18:30:02.830Z,5
2017-04-11T18:35:02.642Z,2
2017-04-11T18:40:03.258Z,4
2017-04-11T18:45:02.821Z,3
2017-04-11T18:50:02.678Z,4
2017-04-11T18:55:03.350Z,7
2017-04-11T19:00:03.157Z,3
2017-04-11T19:05:02.805Z,3
2017-04-11T19:10:02.666Z,3
2017-04-11T19:15:03.320Z,3
2017-04-11T19:20:02.992Z,2
2017-04-11T19:25:02.641Z,3
2017-04-11T19:30:03.441Z,3
2017-04-11T19:35:03.171Z,1
2017-04-11T19:40:02.866Z,4
2017-04-11T19:45:03.419Z,2
2017-04-11T19:50:03.256Z,2
2017-04-11T19:55:03.063Z,3
2017-04-11T20:00:02.837Z,0
2017-04-11T20:05:03.572Z,2
2017-04-11T20:10:03.328Z,3
2017-04-11T20:15:03.078Z,2
2017-04-11T20:20:02.814Z,4
2017-04-11T20:25:03.572Z,3
2017-04-11T20:30:03.277Z,3
2017-04-11T20:35:03.022Z,3
2017-04-11T20:40:02.881Z,4
2017-04-11T20:45:03.502Z,6
2017-04-11T20:50:03.172Z,5
2017-04-11T20:55:02.840Z,6
2017-04-11T21:00:02.624Z,3
2017-04-11T21:05:02.655Z,5
2017-04-11T21:10:03.365Z,5
2017-04-11T21:15:03.157Z,3
2017-04-11T21:20:03.013Z,3
2017-04-11T21:25:02.819Z,3
2017-04-11T21:30:02.912Z,2
2017-04-11T21:35:02.643Z,3
2017-04-11T21:40:03.308Z,3
2017-04-11T21:45:03.106Z,4
2017-04-11T21:50:02.887Z,2
2017-04-11T21:55:03.499Z,2
2017-04-11T22:00:03.236Z,4
2017-04-11T22:05:02.984Z,4
2017-04-11T22:10:02.647Z,2
2017-04-11T22:15:03.429Z,2
2017-04-11T22:20:03.147Z,2
2017-04-11T22:25:02.674Z,3
2017-04-11T22:30:03.425Z,2
2017-04-11T22:35:03.242Z,2
2017-04-11T22:40:03.017Z,3
2017-04-11T22:45:02.760Z,2
2017-04-11T22:50:03.336Z,2
2017-04-11T22:55:03.273Z,3
2017-04-11T23:00:02.995Z,3
2017-04-11T23:05:02.993Z,3
2017-04-11T23:10:02.870Z,2
2017-04-11T23:15:03.639Z,2
2017-04-11T23:25:02.694Z,2
2017-04-11T23:30:02.729Z,2
2017-04-11T23:35:02.801Z,3
2017-04-11T23:40:02.696Z,3
2017-04-11T23:45:03.341Z,1
2017-04-11T23:50:02.861Z,4
2017-04-11T23:55:03.509Z,0
